sensor_id;sensor_type;location;lat;lon;timestamp;temperature;humidity
2899;DHT22;1459;50.864;6.438;2022-09-13T00:01:09;17.40;99.90
2899;DHT22;1459;50.864;6.438;2022-09-13T00:03:36;17.40;99.90
2899;DHT22;1459;50.864;6.438;2022-09-13T00:06:07;17.40;99.90
2899;DHT22;1459;50.864;6.438;2022-09-13T00:08:35;17.50;99.90
2899;DHT22;1459;50.864;6.438;2022-09-13T00:11:02;17.50;99.90
2899;DHT22;1459;50.864;6.438;2022-09-13T00:13:29;17.50;99.90
2899;DHT22;1459;50.864;6.438;2022-09-13T00:15:56;17.50;99.90
2899;DHT22;1459;50.864;6.438;2022-09-13T00:18:27;17.50;99.90
2899;DHT22;1459;50.864;6.438;2022-09-13T00:21:03;17.50;99.90
2899;DHT22;1459;50.864;6.438;2022-09-13T00:23:31;17.60;99.90
2899;DHT22;1459;50.864;6.438;2022-09-13T00:26:09;17.60;99.90
2899;DHT22;1459;50.864;6.438;2022-09-13T00:28:36;17.60;99.90
2899;DHT22;1459;50.864;6.438;2022-09-13T00:31:05;17.70;99.90
2899;DHT22;1459;50.864;6.438;2022-09-13T00:33:34;17.60;99.90
2899;DHT22;1459;50.864;6.438;2022-09-13T00:36:03;17.60;99.90
2899;DHT22;1459;50.864;6.438;2022-09-13T00:38:31;17.60;99.90
2899;DHT22;1459;50.864;6.438;2022-09-13T00:40:58;17.70;99.90
2899;DHT22;1459;50.864;6.438;2022-09-13T00:43:41;17.70;99.90
2899;DHT22;1459;50.864;6.438;2022-09-13T00:46:09;17.70;99.90
2899;DHT22;1459;50.864;6.438;2022-09-13T00:48:39;17.70;99.90
2899;DHT22;1459;50.864;6.438;2022-09-13T00:51:08;17.80;99.90
2899;DHT22;1459;50.864;6.438;2022-09-13T00:53:39;17.80;99.90
2899;DHT22;1459;50.864;6.438;2022-09-13T00:56:10;17.80;99.90
2899;DHT22;1459;50.864;6.438;2022-09-13T00:58:41;17.80;99.90
2899;DHT22;1459;50.864;6.438;2022-09-13T01:01:11;17.80;99.90
2899;DHT22;1459;50.864;6.438;2022-09-13T01:03:42;17.80;99.90
2899;DHT22;1459;50.864;6.438;2022-09-13T01:06:13;17.80;99.90
2899;DHT22;1459;50.864;6.438;2022-09-13T01:08:43;17.90;99.90
2899;DHT22;1459;50.864;6.438;2022-09-13T01:11:17;17.90;99.90
2899;DHT22;1459;50.864;6.438;2022-09-13T01:13:46;17.80;99.90
2899;DHT22;1459;50.864;6.438;2022-09-13T01:16:13;17.90;99.90
2899;DHT22;1459;50.864;6.438;2022-09-13T01:18:41;17.90;99.90
2899;DHT22;1459;50.864;6.438;2022-09-13T01:25:21;17.90;99.90
2899;DHT22;1459;50.864;6.438;2022-09-13T01:28:17;17.80;99.90
2899;DHT22;1459;50.864;6.438;2022-09-13T01:30:55;17.80;99.90
2899;DHT22;1459;50.864;6.438;2022-09-13T01:33:41;17.70;99.90
2899;DHT22;1459;50.864;6.438;2022-09-13T01:36:27;17.60;99.90
2899;DHT22;1459;50.864;6.438;2022-09-13T01:39:01;17.50;99.90
2899;DHT22;1459;50.864;6.438;2022-09-13T01:41:47;17.50;99.90
2899;DHT22;1459;50.864;6.438;2022-09-13T01:44:28;17.40;99.90
2899;DHT22;1459;50.864;6.438;2022-09-13T01:47:04;17.40;99.90
2899;DHT22;1459;50.864;6.438;2022-09-13T01:49:40;17.40;99.90
2899;DHT22;1459;50.864;6.438;2022-09-13T01:52:17;17.40;99.90
2899;DHT22;1459;50.864;6.438;2022-09-13T01:54:52;17.40;99.90
2899;DHT22;1459;50.864;6.438;2022-09-13T01:57:28;17.30;99.90
2899;DHT22;1459;50.864;6.438;2022-09-13T02:00:02;17.30;99.90
2899;DHT22;1459;50.864;6.438;2022-09-13T02:02:35;17.30;99.90
2899;DHT22;1459;50.864;6.438;2022-09-13T02:05:09;17.40;99.90
2899;DHT22;1459;50.864;6.438;2022-09-13T02:07:41;17.40;99.90
2899;DHT22;1459;50.864;6.438;2022-09-13T02:10:20;17.40;99.90
2899;DHT22;1459;50.864;6.438;2022-09-13T02:12:50;17.40;99.90
2899;DHT22;1459;50.864;6.438;2022-09-13T02:15:20;17.40;99.90
2899;DHT22;1459;50.864;6.438;2022-09-13T02:17:55;17.50;99.90
2899;DHT22;1459;50.864;6.438;2022-09-13T02:20:28;17.60;99.90
2899;DHT22;1459;50.864;6.438;2022-09-13T02:23:00;17.60;99.90
2899;DHT22;1459;50.864;6.438;2022-09-13T02:25:30;17.60;99.90
2899;DHT22;1459;50.864;6.438;2022-09-13T02:28:00;17.60;99.90
2899;DHT22;1459;50.864;6.438;2022-09-13T02:30:30;17.60;99.90
2899;DHT22;1459;50.864;6.438;2022-09-13T02:33:03;17.60;99.90
2899;DHT22;1459;50.864;6.438;2022-09-13T02:35:33;17.70;99.90
2899;DHT22;1459;50.864;6.438;2022-09-13T02:38:04;17.70;99.90
2899;DHT22;1459;50.864;6.438;2022-09-13T02:40:38;17.80;99.90
2899;DHT22;1459;50.864;6.438;2022-09-13T02:43:11;17.80;99.90
2899;DHT22;1459;50.864;6.438;2022-09-13T02:45:45;17.80;99.90
2899;DHT22;1459;50.864;6.438;2022-09-13T02:48:19;17.90;99.90
2899;DHT22;1459;50.864;6.438;2022-09-13T02:50:55;17.90;99.90
2899;DHT22;1459;50.864;6.438;2022-09-13T02:53:30;17.90;99.90
2899;DHT22;1459;50.864;6.438;2022-09-13T02:56:04;18.00;99.90
2899;DHT22;1459;50.864;6.438;2022-09-13T02:58:41;18.00;99.90
2899;DHT22;1459;50.864;6.438;2022-09-13T03:01:11;18.10;99.90
2899;DHT22;1459;50.864;6.438;2022-09-13T03:03:39;18.10;99.90
2899;DHT22;1459;50.864;6.438;2022-09-13T03:06:07;18.10;99.90
2899;DHT22;1459;50.864;6.438;2022-09-13T03:08:34;18.10;99.90
2899;DHT22;1459;50.864;6.438;2022-09-13T03:11:12;18.00;99.90
2899;DHT22;1459;50.864;6.438;2022-09-13T03:13:56;18.00;99.90
2899;DHT22;1459;50.864;6.438;2022-09-13T03:16:40;18.00;99.90
2899;DHT22;1459;50.864;6.438;2022-09-13T03:19:26;18.00;99.90
2899;DHT22;1459;50.864;6.438;2022-09-13T03:22:10;17.90;99.90
2899;DHT22;1459;50.864;6.438;2022-09-13T03:24:48;17.90;99.90
2899;DHT22;1459;50.864;6.438;2022-09-13T03:27:24;17.90;99.90
2899;DHT22;1459;50.864;6.438;2022-09-13T03:30:01;17.90;99.90
2899;DHT22;1459;50.864;6.438;2022-09-13T03:32:35;17.90;99.90
2899;DHT22;1459;50.864;6.438;2022-09-13T03:35:16;17.90;99.90
2899;DHT22;1459;50.864;6.438;2022-09-13T03:37:52;17.80;99.90
2899;DHT22;1459;50.864;6.438;2022-09-13T03:40:27;17.90;99.90
2899;DHT22;1459;50.864;6.438;2022-09-13T03:43:02;17.90;99.90
2899;DHT22;1459;50.864;6.438;2022-09-13T03:45:35;17.90;99.90
2899;DHT22;1459;50.864;6.438;2022-09-13T03:48:05;17.90;99.90
2899;DHT22;1459;50.864;6.438;2022-09-13T03:50:34;17.90;99.90
2899;DHT22;1459;50.864;6.438;2022-09-13T03:53:05;18.00;99.90
2899;DHT22;1459;50.864;6.438;2022-09-13T03:55:34;18.00;99.90
2899;DHT22;1459;50.864;6.438;2022-09-13T03:58:04;18.00;99.90
2899;DHT22;1459;50.864;6.438;2022-09-13T04:00:31;18.00;99.90
2899;DHT22;1459;50.864;6.438;2022-09-13T04:02:59;18.10;99.90
2899;DHT22;1459;50.864;6.438;2022-09-13T04:05:26;18.00;99.90
2899;DHT22;1459;50.864;6.438;2022-09-13T04:07:54;18.10;99.90
2899;DHT22;1459;50.864;6.438;2022-09-13T04:10:21;18.10;99.90
2899;DHT22;1459;50.864;6.438;2022-09-13T04:12:49;18.10;99.90
2899;DHT22;1459;50.864;6.438;2022-09-13T04:15:17;18.10;99.90
2899;DHT22;1459;50.864;6.438;2022-09-13T04:17:44;18.10;99.90
2899;DHT22;1459;50.864;6.438;2022-09-13T04:20:11;18.10;99.90
2899;DHT22;1459;50.864;6.438;2022-09-13T04:22:38;18.10;99.90
2899;DHT22;1459;50.864;6.438;2022-09-13T04:25:07;18.10;99.90
2899;DHT22;1459;50.864;6.438;2022-09-13T04:27:34;18.10;99.90
2899;DHT22;1459;50.864;6.438;2022-09-13T04:30:02;18.10;99.90
2899;DHT22;1459;50.864;6.438;2022-09-13T04:32:29;18.10;99.90
2899;DHT22;1459;50.864;6.438;2022-09-13T04:34:57;18.10;99.90
2899;DHT22;1459;50.864;6.438;2022-09-13T04:37:24;18.10;99.90
2899;DHT22;1459;50.864;6.438;2022-09-13T04:39:51;18.10;99.90
2899;DHT22;1459;50.864;6.438;2022-09-13T04:42:20;18.10;99.90
2899;DHT22;1459;50.864;6.438;2022-09-13T04:44:47;18.10;99.90
2899;DHT22;1459;50.864;6.438;2022-09-13T04:47:15;18.10;99.90
2899;DHT22;1459;50.864;6.438;2022-09-13T04:49:42;18.10;99.90
2899;DHT22;1459;50.864;6.438;2022-09-13T04:52:09;18.10;99.90
2899;DHT22;1459;50.864;6.438;2022-09-13T04:54:36;18.10;99.90
2899;DHT22;1459;50.864;6.438;2022-09-13T04:57:03;18.10;99.90
2899;DHT22;1459;50.864;6.438;2022-09-13T04:59:32;18.20;99.90
2899;DHT22;1459;50.864;6.438;2022-09-13T05:01:59;18.10;99.90
2899;DHT22;1459;50.864;6.438;2022-09-13T05:04:26;18.20;99.90
2899;DHT22;1459;50.864;6.438;2022-09-13T05:06:53;18.10;99.90
2899;DHT22;1459;50.864;6.438;2022-09-13T05:09:20;18.10;99.90
2899;DHT22;1459;50.864;6.438;2022-09-13T05:11:47;18.10;99.90
2899;DHT22;1459;50.864;6.438;2022-09-13T05:14:14;18.10;99.90
2899;DHT22;1459;50.864;6.438;2022-09-13T05:16:43;18.10;99.90
2899;DHT22;1459;50.864;6.438;2022-09-13T05:19:11;18.10;99.90
2899;DHT22;1459;50.864;6.438;2022-09-13T05:21:38;18.10;99.90
2899;DHT22;1459;50.864;6.438;2022-09-13T05:24:06;18.10;99.90
2899;DHT22;1459;50.864;6.438;2022-09-13T05:26:34;18.10;99.90
2899;DHT22;1459;50.864;6.438;2022-09-13T05:29:02;18.10;99.90
2899;DHT22;1459;50.864;6.438;2022-09-13T05:31:32;18.10;99.90
2899;DHT22;1459;50.864;6.438;2022-09-13T05:34:02;18.10;99.90
2899;DHT22;1459;50.864;6.438;2022-09-13T05:36:30;18.10;99.90
2899;DHT22;1459;50.864;6.438;2022-09-13T05:38:57;18.10;99.90
2899;DHT22;1459;50.864;6.438;2022-09-13T05:41:25;18.10;99.90
2899;DHT22;1459;50.864;6.438;2022-09-13T05:43:52;18.20;99.90
2899;DHT22;1459;50.864;6.438;2022-09-13T05:46:20;18.20;99.90
2899;DHT22;1459;50.864;6.438;2022-09-13T05:48:48;18.20;99.90
2899;DHT22;1459;50.864;6.438;2022-09-13T05:51:18;18.30;99.90
2899;DHT22;1459;50.864;6.438;2022-09-13T05:53:47;18.30;99.90
2899;DHT22;1459;50.864;6.438;2022-09-13T05:56:16;18.30;99.90
2899;DHT22;1459;50.864;6.438;2022-09-13T05:58:44;18.40;99.90
2899;DHT22;1459;50.864;6.438;2022-09-13T06:01:13;18.40;99.90
2899;DHT22;1459;50.864;6.438;2022-09-13T06:03:40;18.50;99.90
2899;DHT22;1459;50.864;6.438;2022-09-13T06:06:09;18.50;99.90
2899;DHT22;1459;50.864;6.438;2022-09-13T06:08:38;18.60;99.90
2899;DHT22;1459;50.864;6.438;2022-09-13T06:11:07;18.60;99.90
2899;DHT22;1459;50.864;6.438;2022-09-13T06:13:35;18.60;99.90
2899;DHT22;1459;50.864;6.438;2022-09-13T06:16:04;18.70;99.90
2899;DHT22;1459;50.864;6.438;2022-09-13T06:18:31;18.70;99.90
2899;DHT22;1459;50.864;6.438;2022-09-13T06:20:59;18.80;99.90
2899;DHT22;1459;50.864;6.438;2022-09-13T06:23:27;18.90;99.90
2899;DHT22;1459;50.864;6.438;2022-09-13T06:26:03;18.90;99.90
2899;DHT22;1459;50.864;6.438;2022-09-13T06:28:30;19.00;99.90
2899;DHT22;1459;50.864;6.438;2022-09-13T06:31:01;19.10;99.90
2899;DHT22;1459;50.864;6.438;2022-09-13T06:33:31;19.20;99.90
2899;DHT22;1459;50.864;6.438;2022-09-13T06:36:02;19.30;99.90
2899;DHT22;1459;50.864;6.438;2022-09-13T06:38:30;19.30;99.90
2899;DHT22;1459;50.864;6.438;2022-09-13T06:41:02;19.40;99.90
2899;DHT22;1459;50.864;6.438;2022-09-13T06:43:30;19.50;99.90
2899;DHT22;1459;50.864;6.438;2022-09-13T06:46:00;19.50;99.90
2899;DHT22;1459;50.864;6.438;2022-09-13T06:48:32;19.50;99.90
2899;DHT22;1459;50.864;6.438;2022-09-13T06:51:00;19.60;99.90
2899;DHT22;1459;50.864;6.438;2022-09-13T06:53:28;19.70;99.90
2899;DHT22;1459;50.864;6.438;2022-09-13T06:56:05;19.80;99.90
2899;DHT22;1459;50.864;6.438;2022-09-13T06:58:33;19.70;99.90
2899;DHT22;1459;50.864;6.438;2022-09-13T07:01:08;19.80;99.90
2899;DHT22;1459;50.864;6.438;2022-09-13T07:03:37;19.80;99.90
2899;DHT22;1459;50.864;6.438;2022-09-13T07:06:12;19.90;99.90
2899;DHT22;1459;50.864;6.438;2022-09-13T07:08:40;19.90;99.90
2899;DHT22;1459;50.864;6.438;2022-09-13T07:11:10;20.00;99.90
2899;DHT22;1459;50.864;6.438;2022-09-13T07:13:38;20.10;99.90
2899;DHT22;1459;50.864;6.438;2022-09-13T07:16:07;20.10;99.90
2899;DHT22;1459;50.864;6.438;2022-09-13T07:18:34;20.20;99.90
2899;DHT22;1459;50.864;6.438;2022-09-13T07:21:03;20.30;99.90
2899;DHT22;1459;50.864;6.438;2022-09-13T07:23:32;20.40;99.90
2899;DHT22;1459;50.864;6.438;2022-09-13T07:26:00;20.50;99.90
2899;DHT22;1459;50.864;6.438;2022-09-13T07:28:32;20.60;99.90
2899;DHT22;1459;50.864;6.438;2022-09-13T07:31:08;20.80;99.90
2899;DHT22;1459;50.864;6.438;2022-09-13T07:33:36;20.90;99.90
2899;DHT22;1459;50.864;6.438;2022-09-13T07:36:04;21.00;99.90
2899;DHT22;1459;50.864;6.438;2022-09-13T07:38:33;21.10;99.90
2899;DHT22;1459;50.864;6.438;2022-09-13T07:41:01;21.30;99.90
2899;DHT22;1459;50.864;6.438;2022-09-13T07:43:32;21.40;99.90
2899;DHT22;1459;50.864;6.438;2022-09-13T07:46:01;21.50;99.90
2899;DHT22;1459;50.864;6.438;2022-09-13T07:48:29;21.50;99.90
2899;DHT22;1459;50.864;6.438;2022-09-13T07:51:01;21.60;99.90
2899;DHT22;1459;50.864;6.438;2022-09-13T07:53:30;21.70;99.90
2899;DHT22;1459;50.864;6.438;2022-09-13T07:56:01;21.80;99.90
2899;DHT22;1459;50.864;6.438;2022-09-13T07:58:29;22.00;99.90
2899;DHT22;1459;50.864;6.438;2022-09-13T08:01:04;22.10;99.90
2899;DHT22;1459;50.864;6.438;2022-09-13T08:03:32;22.20;99.90
2899;DHT22;1459;50.864;6.438;2022-09-13T08:06:04;22.40;99.90
2899;DHT22;1459;50.864;6.438;2022-09-13T08:08:32;22.40;99.90
2899;DHT22;1459;50.864;6.438;2022-09-13T08:11:01;22.50;99.90
2899;DHT22;1459;50.864;6.438;2022-09-13T08:13:28;22.50;99.90
2899;DHT22;1459;50.864;6.438;2022-09-13T08:16:02;22.50;99.90
2899;DHT22;1459;50.864;6.438;2022-09-13T08:18:30;22.60;99.90
2899;DHT22;1459;50.864;6.438;2022-09-13T08:20:57;22.60;99.90
2899;DHT22;1459;50.864;6.438;2022-09-13T08:23:28;22.60;99.90
2899;DHT22;1459;50.864;6.438;2022-09-13T08:26:00;22.60;99.90
2899;DHT22;1459;50.864;6.438;2022-09-13T08:28:28;22.60;99.90
2899;DHT22;1459;50.864;6.438;2022-09-13T08:31:02;22.60;99.90
2899;DHT22;1459;50.864;6.438;2022-09-13T08:33:29;22.60;99.90
2899;DHT22;1459;50.864;6.438;2022-09-13T08:35:56;22.70;99.90
2899;DHT22;1459;50.864;6.438;2022-09-13T08:38:24;22.70;99.90
2899;DHT22;1459;50.864;6.438;2022-09-13T08:40:54;22.80;99.90
2899;DHT22;1459;50.864;6.438;2022-09-13T08:43:32;22.90;99.90
2899;DHT22;1459;50.864;6.438;2022-09-13T08:46:22;23.00;99.90
2899;DHT22;1459;50.864;6.438;2022-09-13T08:48:52;23.10;99.90
2899;DHT22;1459;50.864;6.438;2022-09-13T08:51:28;23.20;99.90
2899;DHT22;1459;50.864;6.438;2022-09-13T08:53:58;23.30;99.90
2899;DHT22;1459;50.864;6.438;2022-09-13T08:56:31;23.40;99.90
2899;DHT22;1459;50.864;6.438;2022-09-13T08:59:26;23.50;99.90
2899;DHT22;1459;50.864;6.438;2022-09-13T09:02:07;23.50;99.90
2899;DHT22;1459;50.864;6.438;2022-09-13T09:04:40;23.70;99.90
2899;DHT22;1459;50.864;6.438;2022-09-13T09:07:12;23.80;99.90
2899;DHT22;1459;50.864;6.438;2022-09-13T09:09:45;24.00;99.90
2899;DHT22;1459;50.864;6.438;2022-09-13T09:12:18;24.10;99.90
2899;DHT22;1459;50.864;6.438;2022-09-13T09:14:55;24.10;99.90
2899;DHT22;1459;50.864;6.438;2022-09-13T09:17:27;24.20;99.90
2899;DHT22;1459;50.864;6.438;2022-09-13T09:20:04;24.20;99.90
2899;DHT22;1459;50.864;6.438;2022-09-13T09:22:34;24.40;99.90
2899;DHT22;1459;50.864;6.438;2022-09-13T09:25:03;24.50;99.90
2899;DHT22;1459;50.864;6.438;2022-09-13T09:27:30;24.60;99.90
2899;DHT22;1459;50.864;6.438;2022-09-13T09:29:59;24.60;99.90
2899;DHT22;1459;50.864;6.438;2022-09-13T09:32:47;24.80;99.90
2899;DHT22;1459;50.864;6.438;2022-09-13T09:35:28;24.90;99.90
2899;DHT22;1459;50.864;6.438;2022-09-13T09:38:16;25.10;99.90
2899;DHT22;1459;50.864;6.438;2022-09-13T09:40:45;25.00;99.90
2899;DHT22;1459;50.864;6.438;2022-09-13T09:43:18;25.00;99.90
2899;DHT22;1459;50.864;6.438;2022-09-13T09:45:47;25.10;99.90
2899;DHT22;1459;50.864;6.438;2022-09-13T09:48:21;25.10;99.90
2899;DHT22;1459;50.864;6.438;2022-09-13T09:50:52;25.00;99.90
2899;DHT22;1459;50.864;6.438;2022-09-13T09:53:23;25.10;99.90
2899;DHT22;1459;50.864;6.438;2022-09-13T09:55:55;25.00;99.90
2899;DHT22;1459;50.864;6.438;2022-09-13T09:58:36;25.00;99.90
2899;DHT22;1459;50.864;6.438;2022-09-13T10:01:04;25.00;99.90
2899;DHT22;1459;50.864;6.438;2022-09-13T10:03:33;25.10;99.90
2899;DHT22;1459;50.864;6.438;2022-09-13T10:06:05;25.10;99.90
2899;DHT22;1459;50.864;6.438;2022-09-13T10:08:35;25.20;99.90
2899;DHT22;1459;50.864;6.438;2022-09-13T10:11:03;25.30;99.90
2899;DHT22;1459;50.864;6.438;2022-09-13T10:13:31;25.40;99.90
2899;DHT22;1459;50.864;6.438;2022-09-13T10:15:59;25.30;99.90
2899;DHT22;1459;50.864;6.438;2022-09-13T10:18:28;25.30;99.90
2899;DHT22;1459;50.864;6.438;2022-09-13T10:21:02;25.50;99.90
2899;DHT22;1459;50.864;6.438;2022-09-13T10:23:30;25.60;99.90
2899;DHT22;1459;50.864;6.438;2022-09-13T10:26:03;25.70;99.90
2899;DHT22;1459;50.864;6.438;2022-09-13T10:28:35;25.60;99.90
2899;DHT22;1459;50.864;6.438;2022-09-13T10:31:04;25.80;99.90
2899;DHT22;1459;50.864;6.438;2022-09-13T10:33:36;25.80;99.90
2899;DHT22;1459;50.864;6.438;2022-09-13T10:36:10;25.80;99.90
2899;DHT22;1459;50.864;6.438;2022-09-13T10:38:41;25.80;99.90
2899;DHT22;1459;50.864;6.438;2022-09-13T10:41:21;25.90;99.90
2899;DHT22;1459;50.864;6.438;2022-09-13T10:43:55;26.00;99.90
2899;DHT22;1459;50.864;6.438;2022-09-13T10:46:24;26.10;99.90
2899;DHT22;1459;50.864;6.438;2022-09-13T10:48:51;26.10;99.90
2899;DHT22;1459;50.864;6.438;2022-09-13T10:51:36;26.20;99.90
2899;DHT22;1459;50.864;6.438;2022-09-13T10:59:15;26.40;99.90
2899;DHT22;1459;50.864;6.438;2022-09-13T11:01:49;26.80;99.90
2899;DHT22;1459;50.864;6.438;2022-09-13T11:04:38;26.80;99.90
2899;DHT22;1459;50.864;6.438;2022-09-13T11:07:21;26.80;99.90
2899;DHT22;1459;50.864;6.438;2022-09-13T11:09:57;26.70;99.90
2899;DHT22;1459;50.864;6.438;2022-09-13T11:12:32;26.60;99.90
2899;DHT22;1459;50.864;6.438;2022-09-13T11:15:12;26.50;99.90
2899;DHT22;1459;50.864;6.438;2022-09-13T11:20:47;26.50;99.90
2899;DHT22;1459;50.864;6.438;2022-09-13T11:23:42;26.50;99.90
2899;DHT22;1459;50.864;6.438;2022-09-13T11:26:28;26.50;99.90
2899;DHT22;1459;50.864;6.438;2022-09-13T11:29:07;26.50;99.90
2899;DHT22;1459;50.864;6.438;2022-09-13T11:31:41;26.50;99.90
2899;DHT22;1459;50.864;6.438;2022-09-13T11:34:31;26.60;99.90
2899;DHT22;1459;50.864;6.438;2022-09-13T11:37:23;26.60;99.90
2899;DHT22;1459;50.864;6.438;2022-09-13T11:40:00;26.70;99.90
2899;DHT22;1459;50.864;6.438;2022-09-13T11:42:39;26.60;99.90
2899;DHT22;1459;50.864;6.438;2022-09-13T11:45:21;26.70;99.90
2899;DHT22;1459;50.864;6.438;2022-09-13T11:48:12;26.70;99.90
2899;DHT22;1459;50.864;6.438;2022-09-13T11:50:48;26.80;99.90
2899;DHT22;1459;50.864;6.438;2022-09-13T11:53:42;26.90;99.90
2899;DHT22;1459;50.864;6.438;2022-09-13T11:56:20;26.90;99.90
2899;DHT22;1459;50.864;6.438;2022-09-13T11:58:52;26.90;99.90
2899;DHT22;1459;50.864;6.438;2022-09-13T12:01:23;26.80;99.90
2899;DHT22;1459;50.864;6.438;2022-09-13T12:03:57;26.60;99.90
2899;DHT22;1459;50.864;6.438;2022-09-13T12:06:28;26.60;99.90
2899;DHT22;1459;50.864;6.438;2022-09-13T12:09:00;26.50;99.90
2899;DHT22;1459;50.864;6.438;2022-09-13T12:11:32;26.50;99.90
2899;DHT22;1459;50.864;6.438;2022-09-13T12:14:03;26.50;99.90
2899;DHT22;1459;50.864;6.438;2022-09-13T12:16:32;26.50;99.90
2899;DHT22;1459;50.864;6.438;2022-09-13T12:19:02;26.50;99.90
2899;DHT22;1459;50.864;6.438;2022-09-13T12:21:36;26.60;99.90
2899;DHT22;1459;50.864;6.438;2022-09-13T12:24:10;26.60;99.90
2899;DHT22;1459;50.864;6.438;2022-09-13T12:26:42;26.60;99.90
2899;DHT22;1459;50.864;6.438;2022-09-13T12:29:14;26.60;99.90
2899;DHT22;1459;50.864;6.438;2022-09-13T12:31:43;26.60;99.90
2899;DHT22;1459;50.864;6.438;2022-09-13T12:34:17;26.60;99.90
2899;DHT22;1459;50.864;6.438;2022-09-13T12:37:21;26.60;99.90
2899;DHT22;1459;50.864;6.438;2022-09-13T12:40:28;26.70;99.90
2899;DHT22;1459;50.864;6.438;2022-09-13T12:43:20;26.80;99.90
2899;DHT22;1459;50.864;6.438;2022-09-13T12:45:59;26.90;99.90
2899;DHT22;1459;50.864;6.438;2022-09-13T12:48:43;26.90;99.90
2899;DHT22;1459;50.864;6.438;2022-09-13T12:51:29;26.90;99.90
2899;DHT22;1459;50.864;6.438;2022-09-13T12:54:21;26.80;99.90
2899;DHT22;1459;50.864;6.438;2022-09-13T12:57:07;26.80;99.90
2899;DHT22;1459;50.864;6.438;2022-09-13T12:59:54;26.70;99.90
2899;DHT22;1459;50.864;6.438;2022-09-13T13:02:29;26.70;99.90
2899;DHT22;1459;50.864;6.438;2022-09-13T13:04:59;26.80;99.90
2899;DHT22;1459;50.864;6.438;2022-09-13T13:07:27;27.00;99.90
2899;DHT22;1459;50.864;6.438;2022-09-13T13:12:28;27.30;99.90
2899;DHT22;1459;50.864;6.438;2022-09-13T13:14:58;27.50;99.90
2899;DHT22;1459;50.864;6.438;2022-09-13T13:17:37;27.60;99.90
2899;DHT22;1459;50.864;6.438;2022-09-13T13:23:23;27.80;99.90
2899;DHT22;1459;50.864;6.438;2022-09-13T13:31:44;28.10;99.90
2899;DHT22;1459;50.864;6.438;2022-09-13T13:34:34;28.10;99.90
2899;DHT22;1459;50.864;6.438;2022-09-13T13:37:04;28.10;99.90
2899;DHT22;1459;50.864;6.438;2022-09-13T13:39:35;28.10;99.90
2899;DHT22;1459;50.864;6.438;2022-09-13T13:42:11;28.20;99.90
2899;DHT22;1459;50.864;6.438;2022-09-13T13:55:46;28.50;99.90
2899;DHT22;1459;50.864;6.438;2022-09-13T14:49:25;28.50;99.80
2899;DHT22;1459;50.864;6.438;2022-09-13T14:51:57;28.40;99.90
2899;DHT22;1459;50.864;6.438;2022-09-13T14:54:34;28.10;99.90
2899;DHT22;1459;50.864;6.438;2022-09-13T14:57:04;27.90;99.90
2899;DHT22;1459;50.864;6.438;2022-09-13T14:59:42;27.70;99.90
2899;DHT22;1459;50.864;6.438;2022-09-13T15:02:17;27.40;99.90
2899;DHT22;1459;50.864;6.438;2022-09-13T15:04:49;27.20;99.90
2899;DHT22;1459;50.864;6.438;2022-09-13T15:07:22;27.00;99.90
2899;DHT22;1459;50.864;6.438;2022-09-13T15:09:55;26.80;99.90
2899;DHT22;1459;50.864;6.438;2022-09-13T15:12:24;26.70;99.90
2899;DHT22;1459;50.864;6.438;2022-09-13T15:15:21;26.60;99.90
2899;DHT22;1459;50.864;6.438;2022-09-13T15:17:52;26.00;99.90
2899;DHT22;1459;50.864;6.438;2022-09-13T15:20:21;25.50;99.90
2899;DHT22;1459;50.864;6.438;2022-09-13T15:22:49;25.20;99.90
2899;DHT22;1459;50.864;6.438;2022-09-13T15:25:21;25.10;99.90
2899;DHT22;1459;50.864;6.438;2022-09-13T15:27:50;25.00;99.90
2899;DHT22;1459;50.864;6.438;2022-09-13T15:30:24;25.00;99.90
2899;DHT22;1459;50.864;6.438;2022-09-13T15:35:47;24.90;99.90
2899;DHT22;1459;50.864;6.438;2022-09-13T15:38:18;24.90;99.90
2899;DHT22;1459;50.864;6.438;2022-09-13T15:40:58;24.90;99.90
2899;DHT22;1459;50.864;6.438;2022-09-13T15:43:26;24.90;99.90
2899;DHT22;1459;50.864;6.438;2022-09-13T15:45:55;24.90;99.90
2899;DHT22;1459;50.864;6.438;2022-09-13T15:48:26;24.80;99.90
2899;DHT22;1459;50.864;6.438;2022-09-13T15:51:07;24.80;99.90
2899;DHT22;1459;50.864;6.438;2022-09-13T15:53:35;24.80;99.90
2899;DHT22;1459;50.864;6.438;2022-09-13T15:56:04;24.80;99.90
2899;DHT22;1459;50.864;6.438;2022-09-13T15:58:32;24.70;99.90
2899;DHT22;1459;50.864;6.438;2022-09-13T16:01:00;24.60;99.90
2899;DHT22;1459;50.864;6.438;2022-09-13T16:03:27;24.50;99.90
2899;DHT22;1459;50.864;6.438;2022-09-13T16:05:54;24.30;99.90
2899;DHT22;1459;50.864;6.438;2022-09-13T16:08:23;24.20;99.90
2899;DHT22;1459;50.864;6.438;2022-09-13T16:10:50;24.20;99.90
2899;DHT22;1459;50.864;6.438;2022-09-13T16:13:18;24.10;99.90
2899;DHT22;1459;50.864;6.438;2022-09-13T16:15:44;24.00;99.90
2899;DHT22;1459;50.864;6.438;2022-09-13T16:18:12;24.00;99.90
2899;DHT22;1459;50.864;6.438;2022-09-13T16:20:42;23.80;99.90
2899;DHT22;1459;50.864;6.438;2022-09-13T16:23:09;23.60;99.90
2899;DHT22;1459;50.864;6.438;2022-09-13T16:25:37;23.50;99.90
2899;DHT22;1459;50.864;6.438;2022-09-13T16:28:05;23.30;99.90
2899;DHT22;1459;50.864;6.438;2022-09-13T16:30:32;23.20;99.90
2899;DHT22;1459;50.864;6.438;2022-09-13T16:32:59;23.20;99.90
2899;DHT22;1459;50.864;6.438;2022-09-13T16:35:28;23.10;99.90
2899;DHT22;1459;50.864;6.438;2022-09-13T16:37:56;23.00;99.90
2899;DHT22;1459;50.864;6.438;2022-09-13T16:40:23;22.90;99.90
2899;DHT22;1459;50.864;6.438;2022-09-13T16:42:54;22.60;99.90
2899;DHT22;1459;50.864;6.438;2022-09-13T16:45:21;22.40;99.90
2899;DHT22;1459;50.864;6.438;2022-09-13T16:47:50;22.20;99.90
2899;DHT22;1459;50.864;6.438;2022-09-13T16:50:17;22.00;99.90
2899;DHT22;1459;50.864;6.438;2022-09-13T16:52:44;21.80;99.90
2899;DHT22;1459;50.864;6.438;2022-09-13T16:55:12;21.60;99.90
2899;DHT22;1459;50.864;6.438;2022-09-13T16:57:40;21.30;99.90
2899;DHT22;1459;50.864;6.438;2022-09-13T17:00:12;21.10;99.90
2899;DHT22;1459;50.864;6.438;2022-09-13T17:02:42;21.00;99.90
2899;DHT22;1459;50.864;6.438;2022-09-13T17:05:10;20.90;99.90
2899;DHT22;1459;50.864;6.438;2022-09-13T17:07:37;20.80;99.90
2899;DHT22;1459;50.864;6.438;2022-09-13T17:10:06;20.70;99.90
2899;DHT22;1459;50.864;6.438;2022-09-13T17:12:33;20.70;99.90
2899;DHT22;1459;50.864;6.438;2022-09-13T17:15:02;20.60;99.90
2899;DHT22;1459;50.864;6.438;2022-09-13T17:17:31;20.60;99.90
2899;DHT22;1459;50.864;6.438;2022-09-13T17:20:01;20.60;99.90
2899;DHT22;1459;50.864;6.438;2022-09-13T17:22:29;20.60;99.90
2899;DHT22;1459;50.864;6.438;2022-09-13T17:24:57;20.60;99.90
2899;DHT22;1459;50.864;6.438;2022-09-13T17:27:24;20.70;99.90
2899;DHT22;1459;50.864;6.438;2022-09-13T17:29:52;20.70;99.90
2899;DHT22;1459;50.864;6.438;2022-09-13T17:32:19;20.80;99.90
2899;DHT22;1459;50.864;6.438;2022-09-13T17:34:48;20.80;99.90
2899;DHT22;1459;50.864;6.438;2022-09-13T17:37:15;20.70;99.90
2899;DHT22;1459;50.864;6.438;2022-09-13T17:39:42;20.70;99.90
2899;DHT22;1459;50.864;6.438;2022-09-13T17:42:09;20.70;99.90
2899;DHT22;1459;50.864;6.438;2022-09-13T17:44:39;20.60;99.90
2899;DHT22;1459;50.864;6.438;2022-09-13T17:47:06;20.50;99.90
2899;DHT22;1459;50.864;6.438;2022-09-13T17:49:33;20.40;99.90
2899;DHT22;1459;50.864;6.438;2022-09-13T17:52:02;20.40;99.90
2899;DHT22;1459;50.864;6.438;2022-09-13T17:54:29;20.30;99.90
2899;DHT22;1459;50.864;6.438;2022-09-13T17:56:56;20.20;99.90
2899;DHT22;1459;50.864;6.438;2022-09-13T17:59:25;20.20;99.90
2899;DHT22;1459;50.864;6.438;2022-09-13T18:01:53;20.10;99.90